HER weather

Heraklion International Nikos Kazantzakis Airport
Heraklion, Irakleion, Greece

Public forecast

Using degrees Celsius for public forecast. Weather courtesy of forecast.io.

METAR (pilot weather report)

Retrieved 2019/03/25 13:50 UTC (15 minutes ago):

LGIR 251350Z 30019KT 9999 FEW025 17/08 Q1011 NOSIG

TAF (pilot weather forecast)

Retrieved 2019/03/25 12:17 UTC (2 hours ago):

TAF LGIR 251100Z 2512/2612 32017KT 9999 SCT025 BECMG 2518/2520 27010KT BECMG 2521/2523 17010KT BECMG 2606/2608 30015KT